createdAt,value
2023-01-04T00:01:55.481Z,45.88
2023-01-04T00:04:22.314Z,42.85
2023-01-04T00:06:49.197Z,39.38
2023-01-04T00:09:16.053Z,48.20
2023-01-04T00:11:42.879Z,45.30
2023-01-04T00:14:10.961Z,42.85
2023-01-04T00:16:38.016Z,45.03
2023-01-04T00:19:04.939Z,39.67
2023-01-04T00:21:31.999Z,38.63
2023-01-04T00:24:00.872Z,44.25
2023-01-04T00:26:30.880Z,40.00
2023-01-04T00:29:00.762Z,41.55
2023-01-04T00:31:28.816Z,44.65
2023-01-04T00:33:57.724Z,43.42
2023-01-04T00:36:25.324Z,31.20
2023-01-04T00:39:07.716Z,33.58
2023-01-04T00:44:27.028Z,37.80
2023-01-04T00:46:54.113Z,35.90
2023-01-04T00:49:21.083Z,35.75
2023-01-04T00:51:47.934Z,32.00
2023-01-04T00:54:16.634Z,32.83
2023-01-04T00:56:43.918Z,32.20
2023-01-04T00:59:13.278Z,34.47
2023-01-04T01:01:41.455Z,39.08
2023-01-04T01:04:12.418Z,35.33
2023-01-04T01:06:39.491Z,38.88
2023-01-04T01:09:06.951Z,34.88
2023-01-04T01:11:36.589Z,41.78
2023-01-04T01:14:05.118Z,35.00
2023-01-04T01:16:54.516Z,32.33
2023-01-04T01:19:18.876Z,39.38
2023-01-04T01:21:45.726Z,35.78
2023-01-04T01:24:19.281Z,36.03
2023-01-04T01:29:13.390Z,39.08
2023-01-04T01:31:41.139Z,36.38
2023-01-04T01:34:08.699Z,38.08
2023-01-04T01:36:36.477Z,36.08
2023-01-04T01:39:05.578Z,36.33
2023-01-04T01:41:34.480Z,34.40
2023-01-04T01:44:01.271Z,33.67
2023-01-04T01:46:52.268Z,41.28
2023-01-04T01:49:31.077Z,34.58
2023-01-04T01:52:01.874Z,37.33
2023-01-04T01:54:41.035Z,35.95
2023-01-04T01:57:13.693Z,34.70
2023-01-04T01:59:44.137Z,32.37
2023-01-04T02:02:11.610Z,34.47
2023-01-04T02:04:41.660Z,33.83
2023-01-04T02:07:10.956Z,29.98
2023-01-04T02:09:38.088Z,34.83
2023-01-04T02:12:05.269Z,35.08
2023-01-04T02:14:32.109Z,29.20
2023-01-04T02:17:17.118Z,34.97
2023-01-04T02:19:59.078Z,32.53
2023-01-04T02:22:25.894Z,27.83
2023-01-04T02:25:17.884Z,30.52
2023-01-04T02:27:54.779Z,37.53
2023-01-04T02:30:35.036Z,29.40
2023-01-04T02:33:41.868Z,34.45
2023-01-04T02:37:05.779Z,33.55
2023-01-04T02:39:35.722Z,36.33
2023-01-04T02:42:58.880Z,30.90
2023-01-04T02:45:32.834Z,33.15
2023-01-04T02:48:24.111Z,31.08
2023-01-04T02:50:53.934Z,33.50
2023-01-04T02:53:25.640Z,33.42
2023-01-04T02:56:15.040Z,33.80
2023-01-04T02:59:08.328Z,35.53
2023-01-04T03:02:17.401Z,32.50
2023-01-04T03:05:26.065Z,39.85
2023-01-04T03:08:06.872Z,37.25
2023-01-04T03:10:47.380Z,39.60
2023-01-04T03:13:39.585Z,41.88
2023-01-04T03:16:16.067Z,43.22
2023-01-04T03:18:47.333Z,45.08
2023-01-04T03:21:18.175Z,43.00
2023-01-04T03:24:06.391Z,44.78
2023-01-04T03:27:00.205Z,45.15
2023-01-04T03:29:59.473Z,40.53
2023-01-04T03:32:57.342Z,45.45
2023-01-04T03:35:38.766Z,44.78
2023-01-04T03:38:31.466Z,42.40
2023-01-04T03:41:22.751Z,40.30
2023-01-04T03:44:42.301Z,37.35
2023-01-04T03:47:33.566Z,48.35
2023-01-04T03:50:19.642Z,43.72
2023-01-04T03:52:47.736Z,42.53
2023-01-04T03:55:16.086Z,37.15
2023-01-04T03:57:43.668Z,37.88
2023-01-04T04:00:18.993Z,40.97
2023-01-04T04:02:47.656Z,44.30
2023-01-04T04:05:38.019Z,41.97
2023-01-04T04:08:23.949Z,40.35
2023-01-04T04:10:51.270Z,42.50
2023-01-04T04:13:18.212Z,38.88
2023-01-04T04:15:45.055Z,45.50
2023-01-04T04:18:11.909Z,41.63
2023-01-04T04:20:39.019Z,44.67
2023-01-04T04:23:05.915Z,40.58
2023-01-04T04:25:32.868Z,46.35
2023-01-04T04:27:59.728Z,44.90
2023-01-04T04:30:26.558Z,45.33
2023-01-04T04:32:53.394Z,42.47
2023-01-04T04:35:20.230Z,42.30
2023-01-04T04:37:47.077Z,39.90
2023-01-04T04:40:36.602Z,43.40
2023-01-04T04:43:03.451Z,46.75
2023-01-04T04:45:30.387Z,41.33
2023-01-04T04:47:57.228Z,46.55
2023-01-04T04:50:24.029Z,47.10
2023-01-04T04:52:55.769Z,46.50
2023-01-04T04:55:23.278Z,43.28
2023-01-04T04:57:50.107Z,42.45
2023-01-04T05:00:17.509Z,42.60
2023-01-04T05:02:44.536Z,44.35
2023-01-04T05:05:11.483Z,45.72
2023-01-04T05:07:38.296Z,44.10
2023-01-04T05:10:05.575Z,41.35
2023-01-04T05:12:57.466Z,43.95
2023-01-04T05:15:24.797Z,41.47
2023-01-04T05:17:51.594Z,39.05
2023-01-04T05:20:18.496Z,44.45
2023-01-04T05:22:45.345Z,43.65
2023-01-04T05:25:12.821Z,42.65
2023-01-04T05:27:40.176Z,45.13
2023-01-04T05:30:25.981Z,40.85
2023-01-04T05:32:52.900Z,41.45
2023-01-04T05:35:19.743Z,47.95
2023-01-04T05:37:46.595Z,36.42
2023-01-04T05:40:13.391Z,41.83
2023-01-04T05:42:40.245Z,46.33
2023-01-04T05:45:07.691Z,43.35
2023-01-04T05:47:35.466Z,51.50
2023-01-04T05:50:04.278Z,48.97
2023-01-04T05:52:31.121Z,52.75
2023-01-04T05:54:58.077Z,50.45
2023-01-04T05:57:24.959Z,47.33
2023-01-04T05:59:51.846Z,50.10
2023-01-04T06:02:25.546Z,54.83
2023-01-04T06:04:58.522Z,49.67
2023-01-04T06:09:53.563Z,52.50
2023-01-04T06:12:20.612Z,50.80
2023-01-04T06:14:47.466Z,52.55
2023-01-04T06:17:14.614Z,55.33
2023-01-04T06:19:41.504Z,55.53
2023-01-04T06:22:08.866Z,61.00
2023-01-04T06:24:36.059Z,50.50
2023-01-04T06:27:03.500Z,53.35
2023-01-04T06:29:30.378Z,49.38
2023-01-04T06:31:57.269Z,50.17
2023-01-04T06:34:30.493Z,50.80
2023-01-04T06:36:58.341Z,50.28
2023-01-04T06:39:25.197Z,51.50
2023-01-04T06:41:52.171Z,57.10
2023-01-04T06:44:19.162Z,54.80
2023-01-04T06:46:46.096Z,45.08
2023-01-04T06:49:14.424Z,49.95
2023-01-04T06:51:41.405Z,44.67
2023-01-04T06:54:11.706Z,53.33
2023-01-04T06:56:39.149Z,52.47
2023-01-04T06:59:06.386Z,48.90
2023-01-04T07:01:33.537Z,46.17
2023-01-04T07:04:00.548Z,51.47
2023-01-04T07:06:27.646Z,53.38
2023-01-04T07:08:55.624Z,49.67
2023-01-04T07:11:22.492Z,53.13
2023-01-04T07:13:49.445Z,55.80
2023-01-04T07:16:16.387Z,53.72
2023-01-04T07:18:43.357Z,49.85
2023-01-04T07:21:10.293Z,50.65
2023-01-04T07:23:37.102Z,58.28
2023-01-04T07:26:04.001Z,53.70
2023-01-04T07:28:49.117Z,50.47
2023-01-04T07:31:16.069Z,58.03
2023-01-04T07:33:43.078Z,60.65
2023-01-04T07:36:10.096Z,57.80
2023-01-04T07:38:37.132Z,56.83
2023-01-04T07:41:04.768Z,60.53
2023-01-04T07:43:31.706Z,60.67
2023-01-04T07:45:58.882Z,58.50
2023-01-04T07:48:25.763Z,56.80
2023-01-04T07:50:52.563Z,53.90
2023-01-04T07:53:19.427Z,55.95
2023-01-04T07:55:46.325Z,56.38
2023-01-04T07:58:13.162Z,57.13
2023-01-04T08:00:40.096Z,59.30
2023-01-04T08:03:07.040Z,59.05
2023-01-04T08:05:34.620Z,53.60
2023-01-04T08:08:01.601Z,53.90
2023-01-04T08:10:28.804Z,55.78
2023-01-04T08:12:58.928Z,58.67
2023-01-04T08:15:26.761Z,54.50
2023-01-04T08:17:53.624Z,60.35
2023-01-04T08:20:20.600Z,52.85
2023-01-04T08:22:47.398Z,47.17
2023-01-04T08:25:14.239Z,46.45
2023-01-04T08:27:41.828Z,44.42
2023-01-04T08:30:09.283Z,43.55
2023-01-04T08:32:36.209Z,48.88
2023-01-04T08:35:03.412Z,42.08
2023-01-04T08:37:31.883Z,42.05
2023-01-04T08:39:58.751Z,40.33
2023-01-04T08:42:31.145Z,33.42
2023-01-04T08:45:01.599Z,39.50
2023-01-04T08:47:32.997Z,36.47
2023-01-04T08:50:04.723Z,35.80
2023-01-04T08:52:36.770Z,36.55
2023-01-04T08:55:10.182Z,34.38
2023-01-04T08:57:39.398Z,38.05
2023-01-04T09:00:06.889Z,37.38
2023-01-04T09:02:33.844Z,32.38
2023-01-04T09:05:03.134Z,35.38
2023-01-04T09:07:31.051Z,36.53
2023-01-04T09:09:58.015Z,31.70
2023-01-04T09:12:24.865Z,30.77
2023-01-04T09:14:51.680Z,32.22
2023-01-04T09:17:18.516Z,30.27
2023-01-04T09:19:47.642Z,26.75
2023-01-04T09:22:14.523Z,26.33
2023-01-04T09:24:41.352Z,22.27
2023-01-04T09:27:08.188Z,29.27
2023-01-04T09:29:35.387Z,24.27
2023-01-04T09:32:02.449Z,22.42
2023-01-04T09:34:29.410Z,22.48
2023-01-04T09:36:56.336Z,25.25
2023-01-04T09:39:26.305Z,23.50
2023-01-04T09:42:06.492Z,22.70
2023-01-04T09:47:44.117Z,22.10
2023-01-04T09:50:16.601Z,21.00
2023-01-04T09:52:59.473Z,19.75
2023-01-04T09:55:40.835Z,20.17
2023-01-04T09:58:16.885Z,22.90
2023-01-04T10:01:00.459Z,20.23
2023-01-04T10:03:36.669Z,23.00
2023-01-04T10:06:03.880Z,24.80
2023-01-04T10:08:33.496Z,23.20
2023-01-04T10:11:06.179Z,21.48
2023-01-04T10:14:00.648Z,23.37
2023-01-04T10:17:14.118Z,21.13
2023-01-04T10:22:42.127Z,25.25
2023-01-04T10:25:14.660Z,21.47
2023-01-04T10:27:59.684Z,22.77
2023-01-04T10:30:38.257Z,21.13
2023-01-04T10:33:16.435Z,24.35
2023-01-04T10:35:48.334Z,25.80
2023-01-04T10:38:24.601Z,21.85
2023-01-04T10:40:52.183Z,19.85
2023-01-04T10:44:09.744Z,17.38
2023-01-04T10:46:28.928Z,21.67
2023-01-04T10:49:33.852Z,18.08
2023-01-04T10:52:10.807Z,20.67
2023-01-04T10:55:00.052Z,21.50
2023-01-04T10:57:31.169Z,18.98
2023-01-04T11:00:07.319Z,19.77
2023-01-04T11:02:52.650Z,19.83
2023-01-04T11:05:25.593Z,22.90
2023-01-04T11:08:16.302Z,23.90
2023-01-04T11:10:50.688Z,26.17
2023-01-04T11:13:17.812Z,17.70
2023-01-04T11:15:47.739Z,25.80
2023-01-04T11:18:15.762Z,18.80
2023-01-04T11:20:43.116Z,20.40
2023-01-04T11:23:15.188Z,21.52
2023-01-04T11:25:56.110Z,18.00
2023-01-04T11:28:48.687Z,20.25
2023-01-04T11:31:28.901Z,22.02
2023-01-04T11:33:58.593Z,22.00
2023-01-04T11:36:31.521Z,18.77
2023-01-04T11:38:58.930Z,19.75
2023-01-04T11:41:26.746Z,22.30
2023-01-04T11:44:06.927Z,19.15
2023-01-04T11:46:35.058Z,17.83
2023-01-04T11:49:02.168Z,17.20
2023-01-04T11:51:29.104Z,21.05
2023-01-04T11:54:16.788Z,22.05
2023-01-04T11:57:12.078Z,20.60
2023-01-04T11:59:39.379Z,17.77
2023-01-04T12:05:29.101Z,26.60
2023-01-04T12:07:57.941Z,21.20
2023-01-04T12:10:27.248Z,23.42
2023-01-04T12:12:56.568Z,23.60
2023-01-04T12:15:53.756Z,20.08
2023-01-04T12:18:30.206Z,20.15
2023-01-04T12:20:57.655Z,22.50
2023-01-04T12:23:24.956Z,21.58
2023-01-04T12:25:53.530Z,18.42
2023-01-04T12:28:42.803Z,24.75
2023-01-04T12:31:22.407Z,20.25
2023-01-04T12:33:52.427Z,19.63
2023-01-04T12:36:21.464Z,21.80
2023-01-04T12:39:16.386Z,20.77
2023-01-04T12:41:45.296Z,23.30
2023-01-04T12:44:37.242Z,26.00
2023-01-04T12:47:37.879Z,20.17
2023-01-04T12:50:11.271Z,23.27
2023-01-04T12:55:37.705Z,23.48
2023-01-04T13:01:28.926Z,25.88
2023-01-04T13:04:22.854Z,25.17
2023-01-04T13:06:50.059Z,22.45
2023-01-04T13:09:24.221Z,26.30
2023-01-04T13:12:15.671Z,22.90
2023-01-04T13:14:51.698Z,24.00
2023-01-04T13:17:23.846Z,26.35
2023-01-04T13:20:19.694Z,22.30
2023-01-04T13:22:53.307Z,20.70
2023-01-04T13:25:21.692Z,28.95
2023-01-04T13:28:03.415Z,25.27
2023-01-04T13:30:40.569Z,24.25
2023-01-04T13:33:32.337Z,30.58
2023-01-04T13:36:12.148Z,25.95
2023-01-04T13:38:40.710Z,27.23
2023-01-04T13:41:20.926Z,25.70
2023-01-04T13:44:14.177Z,29.15
2023-01-04T13:46:43.468Z,27.48
2023-01-04T13:49:16.247Z,35.35
2023-01-04T13:51:43.283Z,23.63
2023-01-04T13:54:22.976Z,22.50
2023-01-04T13:59:42.127Z,19.55
2023-01-04T14:02:21.102Z,23.15
2023-01-04T14:04:50.832Z,27.73
2023-01-04T14:07:23.867Z,24.48
2023-01-04T14:09:54.729Z,24.63
2023-01-04T14:12:24.746Z,24.45
2023-01-04T14:14:56.231Z,24.98
2023-01-04T14:17:31.939Z,27.77
2023-01-04T14:20:15.415Z,32.58
2023-01-04T14:23:02.623Z,27.83
2023-01-04T14:25:37.220Z,32.78
2023-01-04T14:28:19.656Z,30.98
2023-01-04T14:30:56.046Z,42.30
2023-01-04T14:33:33.867Z,36.17
2023-01-04T14:36:04.925Z,27.88
2023-01-04T14:38:39.066Z,29.42
2023-01-04T14:41:18.161Z,34.85
2023-01-04T14:44:10.125Z,38.97
2023-01-04T14:46:37.272Z,31.80
2023-01-04T14:49:04.922Z,33.00
2023-01-04T14:51:38.582Z,34.53
2023-01-04T14:54:06.542Z,28.95
2023-01-04T14:56:34.480Z,31.90
2023-01-04T14:59:01.834Z,31.33
2023-01-04T15:01:28.751Z,31.63
2023-01-04T15:03:55.775Z,25.30
2023-01-04T15:06:22.799Z,35.70
2023-01-04T15:08:50.225Z,27.70
2023-01-04T15:11:17.839Z,30.35
2023-01-04T15:13:44.829Z,30.05
2023-01-04T15:16:16.023Z,27.30
2023-01-04T15:18:44.766Z,24.52
2023-01-04T15:21:12.881Z,19.92
2023-01-04T15:23:39.815Z,28.00
2023-01-04T15:26:09.128Z,26.85
2023-01-04T15:28:38.018Z,26.88
2023-01-04T15:31:13.422Z,25.48
2023-01-04T15:33:40.683Z,25.55
2023-01-04T15:36:11.565Z,24.20
2023-01-04T15:38:39.810Z,28.45
2023-01-04T15:41:33.057Z,24.27
2023-01-04T15:43:59.913Z,25.97
2023-01-04T15:46:26.958Z,25.52
2023-01-04T15:49:17.584Z,27.33
2023-01-04T15:51:45.419Z,30.42
2023-01-04T15:54:12.753Z,26.40
2023-01-04T15:56:40.449Z,31.05
2023-01-04T15:59:07.574Z,26.30
2023-01-04T16:01:34.592Z,23.27
2023-01-04T16:04:02.687Z,29.23
2023-01-04T16:06:29.689Z,29.00
2023-01-04T16:08:58.864Z,27.05
2023-01-04T16:11:25.862Z,33.17
2023-01-04T16:13:53.135Z,28.67
2023-01-04T16:16:22.538Z,28.13
2023-01-04T16:18:55.057Z,28.10
2023-01-04T16:21:27.669Z,23.65
2023-01-04T16:24:05.533Z,26.27
2023-01-04T16:26:36.998Z,23.30
2023-01-04T16:29:55.759Z,27.80
2023-01-04T16:32:22.691Z,24.83
2023-01-04T16:34:50.994Z,24.63
2023-01-04T16:37:18.759Z,22.35
2023-01-04T16:40:25.205Z,23.08
2023-01-04T16:42:52.316Z,23.17
2023-01-04T16:45:19.480Z,24.75
2023-01-04T16:47:46.562Z,27.67
2023-01-04T16:50:14.223Z,32.55
2023-01-04T16:52:41.286Z,25.83
2023-01-04T16:55:08.966Z,29.52
2023-01-04T16:57:36.141Z,33.50
2023-01-04T17:00:04.726Z,29.77
2023-01-04T17:02:31.772Z,29.58
2023-01-04T17:05:00.833Z,27.35
2023-01-04T17:07:32.555Z,26.50
2023-01-04T17:10:01.317Z,29.33
2023-01-04T17:15:41.815Z,22.40
2023-01-04T17:18:02.877Z,25.17
2023-01-04T17:21:11.106Z,30.48
2023-01-04T17:23:45.808Z,26.95
2023-01-04T17:26:19.190Z,27.67
2023-01-04T17:29:24.003Z,24.60
2023-01-04T17:31:51.176Z,24.80
2023-01-04T17:34:22.489Z,25.88
2023-01-04T17:36:49.917Z,28.25
2023-01-04T17:39:36.629Z,26.80
2023-01-04T17:42:03.538Z,29.90
2023-01-04T17:44:30.352Z,20.00
2023-01-04T17:46:57.269Z,28.08
2023-01-04T17:49:30.894Z,27.90
2023-01-04T17:51:59.021Z,27.75
2023-01-04T17:54:29.663Z,25.45
2023-01-04T17:56:56.741Z,32.40
2023-01-04T17:59:23.828Z,28.60
2023-01-04T18:01:50.974Z,25.00
2023-01-04T18:04:17.878Z,30.40
2023-01-04T18:06:44.745Z,24.23
2023-01-04T18:09:34.386Z,28.55
2023-01-04T18:12:01.223Z,25.52
2023-01-04T18:14:28.122Z,26.35
2023-01-04T18:16:58.687Z,25.40
2023-01-04T18:19:29.832Z,28.27
2023-01-04T18:21:57.184Z,32.83
2023-01-04T18:24:40.087Z,29.00
2023-01-04T18:27:27.684Z,27.77
2023-01-04T18:29:56.423Z,30.40
2023-01-04T18:32:24.998Z,32.60
2023-01-04T18:34:51.952Z,31.88
2023-01-04T18:37:19.516Z,25.13
2023-01-04T18:39:49.762Z,29.38
2023-01-04T18:42:17.087Z,29.15
2023-01-04T18:44:48.346Z,34.92
2023-01-04T18:47:21.187Z,26.27
2023-01-04T18:50:11.082Z,31.08
2023-01-04T18:52:37.930Z,29.08
2023-01-04T18:55:06.013Z,33.85
2023-01-04T18:57:33.088Z,27.65
2023-01-04T19:00:08.096Z,33.72
2023-01-04T19:02:35.349Z,28.98
2023-01-04T19:05:02.362Z,29.85
2023-01-04T19:07:29.209Z,28.15
2023-01-04T19:09:55.998Z,29.27
2023-01-04T19:12:22.911Z,33.97
2023-01-04T19:14:50.107Z,32.83
2023-01-04T19:17:17.453Z,28.02
2023-01-04T19:19:46.307Z,32.47
2023-01-04T19:22:13.248Z,34.28
2023-01-04T19:24:42.266Z,34.13
2023-01-04T19:27:09.328Z,31.77
2023-01-04T19:29:36.640Z,45.03
2023-01-04T19:32:03.679Z,38.58
2023-01-04T19:34:30.884Z,30.65
2023-01-04T19:36:57.926Z,36.13
2023-01-04T19:39:24.874Z,37.42
2023-01-04T19:41:51.739Z,31.40
2023-01-04T19:44:18.708Z,33.35
2023-01-04T19:46:45.565Z,32.47
2023-01-04T19:49:15.186Z,28.20
2023-01-04T19:51:47.215Z,34.30
2023-01-04T19:54:18.546Z,38.85
2023-01-04T19:56:50.143Z,37.97
2023-01-04T19:59:16.983Z,39.00
2023-01-04T20:01:44.007Z,38.85
2023-01-04T20:04:11.076Z,34.70
2023-01-04T20:06:38.857Z,38.38
2023-01-04T20:09:06.826Z,33.72
2023-01-04T20:11:33.720Z,35.55
2023-01-04T20:14:00.592Z,28.40
2023-01-04T20:16:28.692Z,41.58
2023-01-04T20:18:56.969Z,36.95
2023-01-04T20:21:25.984Z,39.60
2023-01-04T20:23:52.991Z,41.22
2023-01-04T20:26:19.957Z,32.60
2023-01-04T20:28:46.894Z,33.47
2023-01-04T20:31:16.426Z,34.05
2023-01-04T20:33:43.801Z,43.35
2023-01-04T20:36:16.612Z,40.22
2023-01-04T20:38:46.260Z,37.08
2023-01-04T20:41:18.887Z,35.75
2023-01-04T20:43:47.510Z,36.70
2023-01-04T20:46:20.436Z,37.40
2023-01-04T20:48:47.800Z,36.55
2023-01-04T20:51:17.801Z,40.47
2023-01-04T20:53:45.264Z,39.05
2023-01-04T20:56:22.210Z,36.08
2023-01-04T20:58:50.288Z,36.10
2023-01-04T21:01:18.729Z,36.20
2023-01-04T21:03:45.766Z,36.05
2023-01-04T21:06:16.031Z,36.65
2023-01-04T21:08:44.411Z,28.15
2023-01-04T21:11:12.843Z,28.50
2023-01-04T21:13:40.171Z,30.33
2023-01-04T21:16:07.302Z,32.03
2023-01-04T21:18:35.335Z,32.88
2023-01-04T21:21:13.846Z,30.38
2023-01-04T21:23:42.095Z,29.73
2023-01-04T21:26:15.674Z,30.38
2023-01-04T21:31:16.168Z,30.60
2023-01-04T21:33:45.922Z,29.88
2023-01-04T21:36:15.300Z,36.33
2023-01-04T21:38:42.405Z,29.45
2023-01-04T21:41:12.138Z,29.38
2023-01-04T21:43:39.830Z,30.15
2023-01-04T21:46:15.936Z,29.52
2023-01-04T21:48:45.104Z,39.50
2023-01-04T21:51:12.909Z,28.88
2023-01-04T21:53:40.926Z,28.15
2023-01-04T21:56:10.965Z,32.13
2023-01-04T21:58:39.840Z,32.08
2023-01-04T22:01:19.010Z,33.92
2023-01-04T22:03:46.011Z,31.13
2023-01-04T22:06:14.069Z,36.50
2023-01-04T22:08:46.281Z,32.22
2023-01-04T22:11:13.828Z,32.85
2023-01-04T22:13:40.754Z,31.98
2023-01-04T22:16:09.900Z,26.65
2023-01-04T22:18:37.528Z,35.60
2023-01-04T22:21:13.671Z,37.45
2023-01-04T22:23:40.871Z,28.30
2023-01-04T22:26:08.173Z,36.50
2023-01-04T22:28:37.314Z,28.13
2023-01-04T22:31:10.268Z,38.17
2023-01-04T22:33:37.960Z,34.30
2023-01-04T22:36:17.179Z,31.90
2023-01-04T22:38:50.173Z,35.40
2023-01-04T22:41:19.182Z,34.78
2023-01-04T22:43:46.357Z,35.10
2023-01-04T22:46:16.182Z,33.88
2023-01-04T22:48:43.852Z,29.55
2023-01-04T22:51:13.494Z,26.75
2023-01-04T22:53:41.016Z,29.95
2023-01-04T22:56:20.274Z,31.88
2023-01-04T22:58:53.452Z,29.38
2023-01-04T23:01:25.528Z,29.65
2023-01-04T23:03:52.749Z,26.40
2023-01-04T23:06:20.034Z,34.10
2023-01-04T23:08:47.175Z,32.90
2023-01-04T23:11:16.750Z,26.98
2023-01-04T23:13:43.870Z,28.17
2023-01-04T23:16:13.714Z,38.63
2023-01-04T23:18:40.787Z,34.25
2023-01-04T23:21:08.085Z,38.67
2023-01-04T23:23:35.093Z,31.65
2023-01-04T23:26:15.054Z,29.27
2023-01-04T23:28:43.325Z,27.52
2023-01-04T23:31:13.448Z,30.58
2023-01-04T23:33:40.812Z,29.60
2023-01-04T23:36:20.331Z,27.27
2023-01-04T23:38:52.795Z,29.83
2023-01-04T23:41:19.984Z,29.90
2023-01-04T23:43:46.863Z,34.47
2023-01-04T23:46:16.131Z,35.30
2023-01-04T23:48:44.577Z,36.60
2023-01-04T23:51:14.886Z,27.88
2023-01-04T23:53:41.837Z,30.88
2023-01-04T23:56:14.717Z,34.55
2023-01-04T23:58:42.304Z,31.42
